sensor_id;sensor_type;location;lat;lon;timestamp;temperature;humidity
5901;DHT22;2976;49.764;9.796;2022-12-18T00:00:58;-11.70;99.90
5901;DHT22;2976;49.764;9.796;2022-12-18T00:03:23;-11.70;99.90
5901;DHT22;2976;49.764;9.796;2022-12-18T00:05:50;-11.70;99.90
5901;DHT22;2976;49.764;9.796;2022-12-18T00:08:16;-11.80;99.90
5901;DHT22;2976;49.764;9.796;2022-12-18T00:10:42;-11.90;99.90
5901;DHT22;2976;49.764;9.796;2022-12-18T00:13:08;-11.90;99.90
5901;DHT22;2976;49.764;9.796;2022-12-18T00:15:35;-11.90;99.90
5901;DHT22;2976;49.764;9.796;2022-12-18T00:18:00;-11.90;99.90
5901;DHT22;2976;49.764;9.796;2022-12-18T00:20:26;-11.90;99.90
5901;DHT22;2976;49.764;9.796;2022-12-18T00:22:52;-12.00;99.90
5901;DHT22;2976;49.764;9.796;2022-12-18T00:25:18;-12.00;99.90
5901;DHT22;2976;49.764;9.796;2022-12-18T00:27:44;-12.10;99.90
5901;DHT22;2976;49.764;9.796;2022-12-18T00:30:10;-12.10;99.90
5901;DHT22;2976;49.764;9.796;2022-12-18T00:32:35;-12.10;99.90
5901;DHT22;2976;49.764;9.796;2022-12-18T00:35:01;-12.00;99.90
5901;DHT22;2976;49.764;9.796;2022-12-18T00:37:27;-12.10;99.90
5901;DHT22;2976;49.764;9.796;2022-12-18T00:39:52;-12.10;99.90
5901;DHT22;2976;49.764;9.796;2022-12-18T00:42:18;-12.00;99.90
5901;DHT22;2976;49.764;9.796;2022-12-18T00:45:02;-12.10;99.90
5901;DHT22;2976;49.764;9.796;2022-12-18T00:47:28;-12.00;99.90
5901;DHT22;2976;49.764;9.796;2022-12-18T00:49:53;-12.00;99.90
5901;DHT22;2976;49.764;9.796;2022-12-18T00:52:19;-11.90;99.90
5901;DHT22;2976;49.764;9.796;2022-12-18T00:54:45;-11.90;99.90
5901;DHT22;2976;49.764;9.796;2022-12-18T00:57:10;-11.90;99.90
5901;DHT22;2976;49.764;9.796;2022-12-18T00:59:36;-11.90;99.90
5901;DHT22;2976;49.764;9.796;2022-12-18T01:02:01;-11.90;99.90
5901;DHT22;2976;49.764;9.796;2022-12-18T01:04:27;-11.80;99.90
5901;DHT22;2976;49.764;9.796;2022-12-18T01:06:52;-11.80;99.90
5901;DHT22;2976;49.764;9.796;2022-12-18T01:09:18;-11.80;99.90
5901;DHT22;2976;49.764;9.796;2022-12-18T01:11:43;-11.70;99.90
5901;DHT22;2976;49.764;9.796;2022-12-18T01:14:09;-11.70;99.90
5901;DHT22;2976;49.764;9.796;2022-12-18T01:16:35;-11.70;99.90
5901;DHT22;2976;49.764;9.796;2022-12-18T01:19:00;-11.80;99.90
5901;DHT22;2976;49.764;9.796;2022-12-18T01:21:26;-11.80;99.90
5901;DHT22;2976;49.764;9.796;2022-12-18T01:23:56;-11.90;99.90
5901;DHT22;2976;49.764;9.796;2022-12-18T01:26:22;-11.80;99.90
5901;DHT22;2976;49.764;9.796;2022-12-18T01:28:48;-11.80;99.90
5901;DHT22;2976;49.764;9.796;2022-12-18T01:31:19;-11.90;99.90
5901;DHT22;2976;49.764;9.796;2022-12-18T01:33:45;-11.80;99.90
5901;DHT22;2976;49.764;9.796;2022-12-18T01:36:25;-11.80;99.90
5901;DHT22;2976;49.764;9.796;2022-12-18T01:38:52;-11.70;99.90
5901;DHT22;2976;49.764;9.796;2022-12-18T01:41:23;-11.80;99.90
5901;DHT22;2976;49.764;9.796;2022-12-18T01:43:57;-11.80;99.90
5901;DHT22;2976;49.764;9.796;2022-12-18T01:46:24;-11.90;99.90
5901;DHT22;2976;49.764;9.796;2022-12-18T01:48:57;-11.90;99.90
5901;DHT22;2976;49.764;9.796;2022-12-18T01:51:26;-11.90;99.90
5901;DHT22;2976;49.764;9.796;2022-12-18T01:53:52;-11.90;99.90
5901;DHT22;2976;49.764;9.796;2022-12-18T01:56:19;-11.90;99.90
5901;DHT22;2976;49.764;9.796;2022-12-18T01:58:50;-11.80;99.90
5901;DHT22;2976;49.764;9.796;2022-12-18T02:01:18;-11.70;99.90
5901;DHT22;2976;49.764;9.796;2022-12-18T02:03:45;-11.70;99.90
5901;DHT22;2976;49.764;9.796;2022-12-18T02:14:54;-11.30;99.90
5901;DHT22;2976;49.764;9.796;2022-12-18T02:17:22;-11.50;99.90
5901;DHT22;2976;49.764;9.796;2022-12-18T02:19:58;-11.70;99.90
5901;DHT22;2976;49.764;9.796;2022-12-18T02:22:35;-12.00;99.90
5901;DHT22;2976;49.764;9.796;2022-12-18T02:27:50;-12.30;99.90
5901;DHT22;2976;49.764;9.796;2022-12-18T02:30:17;-12.40;99.90
5901;DHT22;2976;49.764;9.796;2022-12-18T02:32:50;-12.40;99.90
5901;DHT22;2976;49.764;9.796;2022-12-18T02:35:22;-12.40;99.90
5901;DHT22;2976;49.764;9.796;2022-12-18T02:37:49;-12.40;99.90
5901;DHT22;2976;49.764;9.796;2022-12-18T02:40:17;-12.40;99.90
5901;DHT22;2976;49.764;9.796;2022-12-18T02:42:43;-12.40;99.90
5901;DHT22;2976;49.764;9.796;2022-12-18T02:45:09;-12.40;99.90
5901;DHT22;2976;49.764;9.796;2022-12-18T02:47:39;-12.30;99.90
5901;DHT22;2976;49.764;9.796;2022-12-18T02:50:50;-12.30;99.90
5901;DHT22;2976;49.764;9.796;2022-12-18T02:56:34;-12.30;99.90
5901;DHT22;2976;49.764;9.796;2022-12-18T02:59:06;-12.30;99.90
5901;DHT22;2976;49.764;9.796;2022-12-18T03:01:51;-12.40;99.90
5901;DHT22;2976;49.764;9.796;2022-12-18T03:04:39;-12.40;99.90
5901;DHT22;2976;49.764;9.796;2022-12-18T03:07:16;-12.40;99.90
5901;DHT22;2976;49.764;9.796;2022-12-18T03:09:47;-12.40;99.90
5901;DHT22;2976;49.764;9.796;2022-12-18T03:12:22;-12.30;99.90
5901;DHT22;2976;49.764;9.796;2022-12-18T03:15:08;-12.30;99.90
5901;DHT22;2976;49.764;9.796;2022-12-18T03:17:35;-12.30;99.90
5901;DHT22;2976;49.764;9.796;2022-12-18T03:20:12;-12.40;99.90
5901;DHT22;2976;49.764;9.796;2022-12-18T03:22:38;-12.40;99.90
5901;DHT22;2976;49.764;9.796;2022-12-18T03:25:10;-12.40;99.90
5901;DHT22;2976;49.764;9.796;2022-12-18T03:27:40;-12.30;99.90
5901;DHT22;2976;49.764;9.796;2022-12-18T03:30:12;-12.20;99.90
5901;DHT22;2976;49.764;9.796;2022-12-18T03:32:59;-12.20;99.90
5901;DHT22;2976;49.764;9.796;2022-12-18T03:35:35;-12.20;99.90
5901;DHT22;2976;49.764;9.796;2022-12-18T03:38:03;-12.20;99.90
5901;DHT22;2976;49.764;9.796;2022-12-18T03:43:16;-12.30;99.90
5901;DHT22;2976;49.764;9.796;2022-12-18T03:45:52;-12.30;99.90
5901;DHT22;2976;49.764;9.796;2022-12-18T03:48:30;-12.30;99.90
5901;DHT22;2976;49.764;9.796;2022-12-18T03:51:00;-12.30;99.90
5901;DHT22;2976;49.764;9.796;2022-12-18T03:53:54;-12.40;99.90
5901;DHT22;2976;49.764;9.796;2022-12-18T03:56:18;-12.30;99.90
5901;DHT22;2976;49.764;9.796;2022-12-18T03:58:47;-12.40;99.90
5901;DHT22;2976;49.764;9.796;2022-12-18T04:01:16;-12.50;99.90
5901;DHT22;2976;49.764;9.796;2022-12-18T04:03:44;-12.50;99.90
5901;DHT22;2976;49.764;9.796;2022-12-18T04:06:11;-12.50;99.90
5901;DHT22;2976;49.764;9.796;2022-12-18T04:08:38;-12.50;99.90
5901;DHT22;2976;49.764;9.796;2022-12-18T04:11:05;-12.40;99.90
5901;DHT22;2976;49.764;9.796;2022-12-18T04:13:38;-12.40;99.90
5901;DHT22;2976;49.764;9.796;2022-12-18T04:16:04;-12.30;99.90
5901;DHT22;2976;49.764;9.796;2022-12-18T04:18:30;-12.20;99.90
5901;DHT22;2976;49.764;9.796;2022-12-18T04:20:56;-12.10;99.90
5901;DHT22;2976;49.764;9.796;2022-12-18T04:23:21;-12.10;99.90
5901;DHT22;2976;49.764;9.796;2022-12-18T04:25:47;-12.20;99.90
5901;DHT22;2976;49.764;9.796;2022-12-18T04:28:13;-12.20;99.90
5901;DHT22;2976;49.764;9.796;2022-12-18T04:30:38;-12.20;99.90
5901;DHT22;2976;49.764;9.796;2022-12-18T04:33:09;-12.20;99.90
5901;DHT22;2976;49.764;9.796;2022-12-18T04:35:35;-12.20;99.90
5901;DHT22;2976;49.764;9.796;2022-12-18T04:38:00;-12.20;99.90
5901;DHT22;2976;49.764;9.796;2022-12-18T04:40:26;-12.20;99.90
5901;DHT22;2976;49.764;9.796;2022-12-18T04:42:51;-12.30;99.90
5901;DHT22;2976;49.764;9.796;2022-12-18T04:45:17;-12.40;99.90
5901;DHT22;2976;49.764;9.796;2022-12-18T04:47:43;-12.40;99.90
5901;DHT22;2976;49.764;9.796;2022-12-18T04:50:09;-12.40;99.90
5901;DHT22;2976;49.764;9.796;2022-12-18T04:52:35;-12.30;99.90
5901;DHT22;2976;49.764;9.796;2022-12-18T04:55:00;-12.40;99.90
5901;DHT22;2976;49.764;9.796;2022-12-18T04:57:26;-12.40;99.90
5901;DHT22;2976;49.764;9.796;2022-12-18T04:59:51;-12.50;99.90
5901;DHT22;2976;49.764;9.796;2022-12-18T05:02:17;-12.50;99.90
5901;DHT22;2976;49.764;9.796;2022-12-18T05:04:42;-12.50;99.90
5901;DHT22;2976;49.764;9.796;2022-12-18T05:07:08;-12.20;99.90
5901;DHT22;2976;49.764;9.796;2022-12-18T05:09:33;-12.10;99.90
5901;DHT22;2976;49.764;9.796;2022-12-18T05:11:59;-11.90;99.90
5901;DHT22;2976;49.764;9.796;2022-12-18T05:14:24;-11.80;99.90
5901;DHT22;2976;49.764;9.796;2022-12-18T05:16:50;-11.80;99.90
5901;DHT22;2976;49.764;9.796;2022-12-18T05:19:15;-11.80;99.90
5901;DHT22;2976;49.764;9.796;2022-12-18T05:21:41;-11.80;99.90
5901;DHT22;2976;49.764;9.796;2022-12-18T05:24:07;-11.90;99.90
5901;DHT22;2976;49.764;9.796;2022-12-18T05:26:33;-11.80;99.90
5901;DHT22;2976;49.764;9.796;2022-12-18T05:28:58;-11.80;99.90
5901;DHT22;2976;49.764;9.796;2022-12-18T05:31:24;-11.80;99.90
5901;DHT22;2976;49.764;9.796;2022-12-18T05:33:49;-11.80;99.90
5901;DHT22;2976;49.764;9.796;2022-12-18T05:36:15;-11.80;99.90
5901;DHT22;2976;49.764;9.796;2022-12-18T05:38:41;-11.70;99.90
5901;DHT22;2976;49.764;9.796;2022-12-18T05:41:07;-11.70;99.90
5901;DHT22;2976;49.764;9.796;2022-12-18T05:43:35;-11.80;99.90
5901;DHT22;2976;49.764;9.796;2022-12-18T05:46:09;-11.80;99.90
5901;DHT22;2976;49.764;9.796;2022-12-18T05:48:36;-11.90;99.90
5901;DHT22;2976;49.764;9.796;2022-12-18T05:51:11;-11.90;99.90
5901;DHT22;2976;49.764;9.796;2022-12-18T05:53:37;-11.90;99.90
5901;DHT22;2976;49.764;9.796;2022-12-18T05:56:05;-11.80;99.90
5901;DHT22;2976;49.764;9.796;2022-12-18T05:58:31;-11.80;99.90
5901;DHT22;2976;49.764;9.796;2022-12-18T06:00:57;-11.70;99.90
5901;DHT22;2976;49.764;9.796;2022-12-18T06:03:23;-11.50;99.90
5901;DHT22;2976;49.764;9.796;2022-12-18T06:05:48;-11.30;99.90
5901;DHT22;2976;49.764;9.796;2022-12-18T06:08:14;-11.10;99.90
5901;DHT22;2976;49.764;9.796;2022-12-18T06:10:40;-10.90;99.90
5901;DHT22;2976;49.764;9.796;2022-12-18T06:13:06;-10.80;99.90
5901;DHT22;2976;49.764;9.796;2022-12-18T06:15:35;-10.60;99.90
5901;DHT22;2976;49.764;9.796;2022-12-18T06:18:01;-10.60;99.90
5901;DHT22;2976;49.764;9.796;2022-12-18T06:20:26;-10.50;99.90
5901;DHT22;2976;49.764;9.796;2022-12-18T06:22:52;-10.40;99.90
5901;DHT22;2976;49.764;9.796;2022-12-18T06:25:17;-10.30;99.90
5901;DHT22;2976;49.764;9.796;2022-12-18T06:27:43;-10.30;99.90
5901;DHT22;2976;49.764;9.796;2022-12-18T06:30:09;-10.20;99.90
5901;DHT22;2976;49.764;9.796;2022-12-18T06:32:35;-10.10;99.90
5901;DHT22;2976;49.764;9.796;2022-12-18T06:35:01;-10.10;99.90
5901;DHT22;2976;49.764;9.796;2022-12-18T06:37:26;-10.10;99.90
5901;DHT22;2976;49.764;9.796;2022-12-18T06:39:53;-10.10;99.90
5901;DHT22;2976;49.764;9.796;2022-12-18T06:42:21;-10.00;99.90
5901;DHT22;2976;49.764;9.796;2022-12-18T06:44:47;-10.00;99.90
5901;DHT22;2976;49.764;9.796;2022-12-18T06:47:12;-10.00;99.90
5901;DHT22;2976;49.764;9.796;2022-12-18T06:49:38;-9.90;99.90
5901;DHT22;2976;49.764;9.796;2022-12-18T06:52:03;-9.90;99.90
5901;DHT22;2976;49.764;9.796;2022-12-18T06:54:29;-9.90;99.90
5901;DHT22;2976;49.764;9.796;2022-12-18T06:56:56;-9.90;99.90
5901;DHT22;2976;49.764;9.796;2022-12-18T06:59:21;-9.90;99.90
5901;DHT22;2976;49.764;9.796;2022-12-18T07:01:47;-9.90;99.90
5901;DHT22;2976;49.764;9.796;2022-12-18T07:04:12;-9.90;99.90
5901;DHT22;2976;49.764;9.796;2022-12-18T07:06:38;-9.90;99.90
5901;DHT22;2976;49.764;9.796;2022-12-18T07:09:03;-9.80;99.90
5901;DHT22;2976;49.764;9.796;2022-12-18T07:11:29;-9.80;99.90
5901;DHT22;2976;49.764;9.796;2022-12-18T07:13:54;-9.70;99.90
5901;DHT22;2976;49.764;9.796;2022-12-18T07:16:20;-9.60;99.90
5901;DHT22;2976;49.764;9.796;2022-12-18T07:18:46;-9.60;99.90
5901;DHT22;2976;49.764;9.796;2022-12-18T07:21:15;-9.60;99.90
5901;DHT22;2976;49.764;9.796;2022-12-18T07:23:41;-9.50;99.90
5901;DHT22;2976;49.764;9.796;2022-12-18T07:26:09;-9.50;99.90
5901;DHT22;2976;49.764;9.796;2022-12-18T07:28:37;-9.40;99.90
5901;DHT22;2976;49.764;9.796;2022-12-18T07:31:11;-9.30;99.90
5901;DHT22;2976;49.764;9.796;2022-12-18T07:33:37;-9.30;99.90
5901;DHT22;2976;49.764;9.796;2022-12-18T07:36:05;-9.30;99.90
5901;DHT22;2976;49.764;9.796;2022-12-18T07:38:32;-9.20;99.90
5901;DHT22;2976;49.764;9.796;2022-12-18T07:41:09;-9.10;99.90
5901;DHT22;2976;49.764;9.796;2022-12-18T07:43:35;-9.10;99.90
5901;DHT22;2976;49.764;9.796;2022-12-18T07:46:02;-9.00;99.90
5901;DHT22;2976;49.764;9.796;2022-12-18T07:48:28;-9.00;99.90
5901;DHT22;2976;49.764;9.796;2022-12-18T07:51:01;-9.00;99.90
5901;DHT22;2976;49.764;9.796;2022-12-18T07:53:27;-8.80;99.90
5901;DHT22;2976;49.764;9.796;2022-12-18T07:55:57;-8.80;99.90
5901;DHT22;2976;49.764;9.796;2022-12-18T07:58:23;-8.70;99.90
5901;DHT22;2976;49.764;9.796;2022-12-18T08:00:48;-8.70;99.90
5901;DHT22;2976;49.764;9.796;2022-12-18T08:03:14;-8.70;99.90
5901;DHT22;2976;49.764;9.796;2022-12-18T08:05:39;-8.60;99.90
5901;DHT22;2976;49.764;9.796;2022-12-18T08:08:05;-8.60;99.90
5901;DHT22;2976;49.764;9.796;2022-12-18T08:10:30;-8.50;99.90
5901;DHT22;2976;49.764;9.796;2022-12-18T08:12:56;-8.40;99.90
5901;DHT22;2976;49.764;9.796;2022-12-18T08:15:21;-8.30;99.90
5901;DHT22;2976;49.764;9.796;2022-12-18T08:17:47;-8.30;99.90
5901;DHT22;2976;49.764;9.796;2022-12-18T08:20:13;-8.20;99.90
5901;DHT22;2976;49.764;9.796;2022-12-18T08:22:42;-8.10;99.90
5901;DHT22;2976;49.764;9.796;2022-12-18T08:25:08;-8.00;99.90
5901;DHT22;2976;49.764;9.796;2022-12-18T08:27:34;-7.90;99.90
5901;DHT22;2976;49.764;9.796;2022-12-18T08:30:00;-7.90;99.90
5901;DHT22;2976;49.764;9.796;2022-12-18T08:32:26;-7.90;99.90
5901;DHT22;2976;49.764;9.796;2022-12-18T08:34:52;-7.90;99.90
5901;DHT22;2976;49.764;9.796;2022-12-18T08:37:17;-7.80;99.90
5901;DHT22;2976;49.764;9.796;2022-12-18T08:39:43;-7.80;99.90
5901;DHT22;2976;49.764;9.796;2022-12-18T08:42:09;-7.70;99.90
5901;DHT22;2976;49.764;9.796;2022-12-18T08:44:52;-7.60;99.90
5901;DHT22;2976;49.764;9.796;2022-12-18T08:47:18;-7.50;99.90
5901;DHT22;2976;49.764;9.796;2022-12-18T08:49:43;-7.40;99.90
5901;DHT22;2976;49.764;9.796;2022-12-18T08:52:09;-7.40;99.90
5901;DHT22;2976;49.764;9.796;2022-12-18T08:54:34;-7.30;99.90
5901;DHT22;2976;49.764;9.796;2022-12-18T08:57:00;-7.30;99.90
5901;DHT22;2976;49.764;9.796;2022-12-18T08:59:25;-7.20;99.90
5901;DHT22;2976;49.764;9.796;2022-12-18T09:01:53;-7.10;99.90
5901;DHT22;2976;49.764;9.796;2022-12-18T09:04:19;-7.00;99.90
5901;DHT22;2976;49.764;9.796;2022-12-18T09:06:45;-6.90;99.90
5901;DHT22;2976;49.764;9.796;2022-12-18T09:09:10;-6.90;99.90
5901;DHT22;2976;49.764;9.796;2022-12-18T09:11:37;-6.90;99.90
5901;DHT22;2976;49.764;9.796;2022-12-18T09:14:02;-6.80;99.90
5901;DHT22;2976;49.764;9.796;2022-12-18T09:16:29;-6.70;99.90
5901;DHT22;2976;49.764;9.796;2022-12-18T09:18:55;-6.70;99.90
5901;DHT22;2976;49.764;9.796;2022-12-18T09:21:26;-6.50;99.90
5901;DHT22;2976;49.764;9.796;2022-12-18T09:23:53;-6.50;99.90
5901;DHT22;2976;49.764;9.796;2022-12-18T09:26:23;-6.40;99.90
5901;DHT22;2976;49.764;9.796;2022-12-18T09:28:49;-6.30;99.90
5901;DHT22;2976;49.764;9.796;2022-12-18T09:31:16;-6.20;99.90
5901;DHT22;2976;49.764;9.796;2022-12-18T09:33:42;-6.20;99.90
5901;DHT22;2976;49.764;9.796;2022-12-18T09:36:10;-6.30;99.90
5901;DHT22;2976;49.764;9.796;2022-12-18T09:38:36;-6.20;99.90
5901;DHT22;2976;49.764;9.796;2022-12-18T09:44:00;-6.10;99.90
5901;DHT22;2976;49.764;9.796;2022-12-18T09:46:33;-5.90;99.90
5901;DHT22;2976;49.764;9.796;2022-12-18T09:49:02;-5.90;99.90
5901;DHT22;2976;49.764;9.796;2022-12-18T09:51:37;-5.90;99.90
5901;DHT22;2976;49.764;9.796;2022-12-18T09:54:11;-5.90;99.90
5901;DHT22;2976;49.764;9.796;2022-12-18T09:56:41;-5.70;99.90
5901;DHT22;2976;49.764;9.796;2022-12-18T09:59:21;-5.80;99.90
5901;DHT22;2976;49.764;9.796;2022-12-18T10:01:47;-5.70;99.90
5901;DHT22;2976;49.764;9.796;2022-12-18T10:04:13;-5.60;99.90
5901;DHT22;2976;49.764;9.796;2022-12-18T10:06:48;-5.70;99.90
5901;DHT22;2976;49.764;9.796;2022-12-18T10:25:24;-5.20;99.90
5901;DHT22;2976;49.764;9.796;2022-12-18T10:27:55;-5.10;99.90
5901;DHT22;2976;49.764;9.796;2022-12-18T10:30:23;-5.10;99.90
5901;DHT22;2976;49.764;9.796;2022-12-18T10:32:49;-5.00;99.90
5901;DHT22;2976;49.764;9.796;2022-12-18T10:35:25;-5.20;99.90
5901;DHT22;2976;49.764;9.796;2022-12-18T10:38:06;-5.10;99.90
5901;DHT22;2976;49.764;9.796;2022-12-18T10:40:47;-4.90;99.90
5901;DHT22;2976;49.764;9.796;2022-12-18T10:43:15;-4.70;99.90
5901;DHT22;2976;49.764;9.796;2022-12-18T10:45:42;-4.60;99.90
5901;DHT22;2976;49.764;9.796;2022-12-18T10:48:19;-4.50;99.90
5901;DHT22;2976;49.764;9.796;2022-12-18T10:50:48;-4.40;99.90
5901;DHT22;2976;49.764;9.796;2022-12-18T10:53:22;-4.30;99.90
5901;DHT22;2976;49.764;9.796;2022-12-18T10:55:49;-4.30;99.90
5901;DHT22;2976;49.764;9.796;2022-12-18T10:58:30;-4.30;99.90
5901;DHT22;2976;49.764;9.796;2022-12-18T11:01:15;-4.40;99.90
5901;DHT22;2976;49.764;9.796;2022-12-18T11:06:23;-4.30;99.90
5901;DHT22;2976;49.764;9.796;2022-12-18T11:09:05;-4.30;99.90
5901;DHT22;2976;49.764;9.796;2022-12-18T11:11:32;-4.40;99.90
5901;DHT22;2976;49.764;9.796;2022-12-18T11:14:05;-4.40;99.90
5901;DHT22;2976;49.764;9.796;2022-12-18T11:16:34;-4.30;99.90
5901;DHT22;2976;49.764;9.796;2022-12-18T11:21:54;-4.20;99.90
5901;DHT22;2976;49.764;9.796;2022-12-18T11:24:29;-4.10;99.90
5901;DHT22;2976;49.764;9.796;2022-12-18T11:27:02;-4.10;99.90
5901;DHT22;2976;49.764;9.796;2022-12-18T11:29:39;-4.10;99.90
5901;DHT22;2976;49.764;9.796;2022-12-18T11:32:32;-4.10;99.90
5901;DHT22;2976;49.764;9.796;2022-12-18T11:35:12;-4.00;99.90
5901;DHT22;2976;49.764;9.796;2022-12-18T11:37:43;-3.90;99.90
5901;DHT22;2976;49.764;9.796;2022-12-18T11:40:22;-3.70;99.90
5901;DHT22;2976;49.764;9.796;2022-12-18T11:45:32;-3.70;99.90
5901;DHT22;2976;49.764;9.796;2022-12-18T11:48:14;-3.70;99.90
5901;DHT22;2976;49.764;9.796;2022-12-18T11:50:55;-3.70;99.90
5901;DHT22;2976;49.764;9.796;2022-12-18T11:53:22;-3.60;99.90
5901;DHT22;2976;49.764;9.796;2022-12-18T11:58:48;-3.60;99.90
5901;DHT22;2976;49.764;9.796;2022-12-18T12:04:17;-3.50;99.90
5901;DHT22;2976;49.764;9.796;2022-12-18T12:07:34;-3.60;99.90
5901;DHT22;2976;49.764;9.796;2022-12-18T12:10:14;-3.50;99.90
5901;DHT22;2976;49.764;9.796;2022-12-18T12:15:56;-3.30;99.90
5901;DHT22;2976;49.764;9.796;2022-12-18T12:21:40;-3.10;99.90
5901;DHT22;2976;49.764;9.796;2022-12-18T12:24:34;-3.00;99.90
5901;DHT22;2976;49.764;9.796;2022-12-18T12:30:07;-3.00;99.90
5901;DHT22;2976;49.764;9.796;2022-12-18T12:38:22;-3.00;99.90
5901;DHT22;2976;49.764;9.796;2022-12-18T12:40:58;-2.90;99.90
5901;DHT22;2976;49.764;9.796;2022-12-18T12:43:45;-2.90;99.90
5901;DHT22;2976;49.764;9.796;2022-12-18T12:46:16;-2.90;99.90
5901;DHT22;2976;49.764;9.796;2022-12-18T12:53:47;-2.90;99.90
5901;DHT22;2976;49.764;9.796;2022-12-18T12:56:15;-2.70;99.90
5901;DHT22;2976;49.764;9.796;2022-12-18T12:58:51;-2.70;99.90
5901;DHT22;2976;49.764;9.796;2022-12-18T13:02:04;-2.80;99.90
5901;DHT22;2976;49.764;9.796;2022-12-18T13:07:10;-2.80;99.90
5901;DHT22;2976;49.764;9.796;2022-12-18T13:10:12;-2.60;99.90
5901;DHT22;2976;49.764;9.796;2022-12-18T13:15:29;-2.60;99.90
5901;DHT22;2976;49.764;9.796;2022-12-18T13:23:18;-2.80;99.90
5901;DHT22;2976;49.764;9.796;2022-12-18T13:25:44;-2.90;99.90
5901;DHT22;2976;49.764;9.796;2022-12-18T13:36:01;-3.00;99.90
5901;DHT22;2976;49.764;9.796;2022-12-18T13:43:41;-3.00;99.90
5901;DHT22;2976;49.764;9.796;2022-12-18T13:46:24;-3.00;99.90
5901;DHT22;2976;49.764;9.796;2022-12-18T13:48:57;-3.10;99.90
5901;DHT22;2976;49.764;9.796;2022-12-18T13:51:24;-3.10;99.90
5901;DHT22;2976;49.764;9.796;2022-12-18T13:57:04;-3.10;99.90
5901;DHT22;2976;49.764;9.796;2022-12-18T13:59:39;-3.10;99.90
5901;DHT22;2976;49.764;9.796;2022-12-18T14:02:14;-3.00;99.90
5901;DHT22;2976;49.764;9.796;2022-12-18T14:04:39;-3.10;99.90
5901;DHT22;2976;49.764;9.796;2022-12-18T14:07:13;-3.10;99.90
5901;DHT22;2976;49.764;9.796;2022-12-18T14:09:47;-3.10;99.90
5901;DHT22;2976;49.764;9.796;2022-12-18T14:12:20;-3.20;99.90
5901;DHT22;2976;49.764;9.796;2022-12-18T14:18:02;-3.20;99.90
5901;DHT22;2976;49.764;9.796;2022-12-18T14:20:31;-3.30;99.90
5901;DHT22;2976;49.764;9.796;2022-12-18T14:22:57;-3.30;99.90
5901;DHT22;2976;49.764;9.796;2022-12-18T14:25:25;-3.30;99.90
5901;DHT22;2976;49.764;9.796;2022-12-18T14:33:11;-3.50;99.90
5901;DHT22;2976;49.764;9.796;2022-12-18T14:35:58;-3.50;99.90
5901;DHT22;2976;49.764;9.796;2022-12-18T14:38:31;-3.60;99.90
5901;DHT22;2976;49.764;9.796;2022-12-18T14:40:59;-3.70;99.90
5901;DHT22;2976;49.764;9.796;2022-12-18T14:43:34;-3.70;99.90
5901;DHT22;2976;49.764;9.796;2022-12-18T14:46:00;-3.70;99.90
5901;DHT22;2976;49.764;9.796;2022-12-18T14:48:41;-3.70;99.90
5901;DHT22;2976;49.764;9.796;2022-12-18T14:51:18;-3.80;99.90
5901;DHT22;2976;49.764;9.796;2022-12-18T14:54:03;-3.90;99.90
5901;DHT22;2976;49.764;9.796;2022-12-18T14:56:30;-3.90;99.90
5901;DHT22;2976;49.764;9.796;2022-12-18T14:59:04;-3.90;99.90
5901;DHT22;2976;49.764;9.796;2022-12-18T15:01:35;-4.00;99.90
5901;DHT22;2976;49.764;9.796;2022-12-18T15:04:03;-4.00;99.90
5901;DHT22;2976;49.764;9.796;2022-12-18T15:06:33;-4.10;99.90
5901;DHT22;2976;49.764;9.796;2022-12-18T15:09:01;-4.20;99.90
5901;DHT22;2976;49.764;9.796;2022-12-18T15:11:57;-4.20;99.90
5901;DHT22;2976;49.764;9.796;2022-12-18T15:14:31;-4.20;99.90
5901;DHT22;2976;49.764;9.796;2022-12-18T15:16:59;-4.30;99.90
5901;DHT22;2976;49.764;9.796;2022-12-18T15:19:38;-4.30;99.90
5901;DHT22;2976;49.764;9.796;2022-12-18T15:22:28;-4.30;99.90
5901;DHT22;2976;49.764;9.796;2022-12-18T15:24:55;-4.30;99.90
5901;DHT22;2976;49.764;9.796;2022-12-18T15:32:33;-4.30;99.90
5901;DHT22;2976;49.764;9.796;2022-12-18T15:37:34;-4.20;99.90
5901;DHT22;2976;49.764;9.796;2022-12-18T15:39:59;-4.20;99.90
5901;DHT22;2976;49.764;9.796;2022-12-18T15:42:25;-4.10;99.90
5901;DHT22;2976;49.764;9.796;2022-12-18T15:45:13;-4.20;99.90
5901;DHT22;2976;49.764;9.796;2022-12-18T15:47:39;-4.20;99.90
5901;DHT22;2976;49.764;9.796;2022-12-18T15:50:04;-4.30;99.90
5901;DHT22;2976;49.764;9.796;2022-12-18T15:52:39;-4.30;99.90
5901;DHT22;2976;49.764;9.796;2022-12-18T15:55:12;-4.40;99.90
5901;DHT22;2976;49.764;9.796;2022-12-18T15:57:57;-4.40;99.90
5901;DHT22;2976;49.764;9.796;2022-12-18T16:00:22;-4.40;99.90
5901;DHT22;2976;49.764;9.796;2022-12-18T16:02:48;-4.40;99.90
5901;DHT22;2976;49.764;9.796;2022-12-18T16:05:16;-4.40;99.90
5901;DHT22;2976;49.764;9.796;2022-12-18T16:07:42;-4.40;99.90
5901;DHT22;2976;49.764;9.796;2022-12-18T16:10:08;-4.40;99.90
5901;DHT22;2976;49.764;9.796;2022-12-18T16:12:34;-4.40;99.90
5901;DHT22;2976;49.764;9.796;2022-12-18T16:15:00;-4.50;99.90
5901;DHT22;2976;49.764;9.796;2022-12-18T16:17:26;-4.50;99.90
5901;DHT22;2976;49.764;9.796;2022-12-18T16:19:51;-4.50;99.90
5901;DHT22;2976;49.764;9.796;2022-12-18T16:22:21;-4.40;99.90
5901;DHT22;2976;49.764;9.796;2022-12-18T16:24:47;-4.40;99.90
5901;DHT22;2976;49.764;9.796;2022-12-18T16:27:12;-4.50;99.90
5901;DHT22;2976;49.764;9.796;2022-12-18T16:29:38;-4.60;99.90
5901;DHT22;2976;49.764;9.796;2022-12-18T16:32:03;-4.60;99.90
5901;DHT22;2976;49.764;9.796;2022-12-18T16:34:31;-4.70;99.90
5901;DHT22;2976;49.764;9.796;2022-12-18T16:36:59;-4.70;99.90
5901;DHT22;2976;49.764;9.796;2022-12-18T16:39:25;-4.60;99.90
5901;DHT22;2976;49.764;9.796;2022-12-18T16:41:51;-4.60;99.90
5901;DHT22;2976;49.764;9.796;2022-12-18T16:44:17;-4.60;99.90
5901;DHT22;2976;49.764;9.796;2022-12-18T16:46:43;-4.60;99.90
5901;DHT22;2976;49.764;9.796;2022-12-18T16:49:14;-4.60;99.90
5901;DHT22;2976;49.764;9.796;2022-12-18T16:51:40;-4.60;99.90
5901;DHT22;2976;49.764;9.796;2022-12-18T16:54:06;-4.60;99.90
5901;DHT22;2976;49.764;9.796;2022-12-18T16:56:32;-4.60;99.90
5901;DHT22;2976;49.764;9.796;2022-12-18T16:58:59;-4.60;99.90
5901;DHT22;2976;49.764;9.796;2022-12-18T17:01:26;-4.60;99.90
5901;DHT22;2976;49.764;9.796;2022-12-18T17:04:05;-4.50;99.90
5901;DHT22;2976;49.764;9.796;2022-12-18T17:06:33;-4.50;99.90
5901;DHT22;2976;49.764;9.796;2022-12-18T17:09:03;-4.50;99.90
5901;DHT22;2976;49.764;9.796;2022-12-18T17:11:30;-4.50;99.90
5901;DHT22;2976;49.764;9.796;2022-12-18T17:13:57;-4.50;99.90
5901;DHT22;2976;49.764;9.796;2022-12-18T17:16:23;-4.50;99.90
5901;DHT22;2976;49.764;9.796;2022-12-18T17:18:49;-4.50;99.90
5901;DHT22;2976;49.764;9.796;2022-12-18T17:21:15;-4.50;99.90
5901;DHT22;2976;49.764;9.796;2022-12-18T17:23:42;-4.40;99.90
5901;DHT22;2976;49.764;9.796;2022-12-18T17:26:13;-4.50;99.90
5901;DHT22;2976;49.764;9.796;2022-12-18T17:28:40;-4.50;99.90
5901;DHT22;2976;49.764;9.796;2022-12-18T17:31:17;-4.40;99.90
5901;DHT22;2976;49.764;9.796;2022-12-18T17:33:43;-4.40;99.90
5901;DHT22;2976;49.764;9.796;2022-12-18T17:36:09;-4.40;99.90
5901;DHT22;2976;49.764;9.796;2022-12-18T17:38:35;-4.40;99.90
5901;DHT22;2976;49.764;9.796;2022-12-18T17:41:06;-4.40;99.90
5901;DHT22;2976;49.764;9.796;2022-12-18T17:43:32;-4.40;99.90
5901;DHT22;2976;49.764;9.796;2022-12-18T17:46:04;-4.30;99.90
5901;DHT22;2976;49.764;9.796;2022-12-18T17:48:29;-4.30;99.90
5901;DHT22;2976;49.764;9.796;2022-12-18T17:51:04;-4.30;99.90
5901;DHT22;2976;49.764;9.796;2022-12-18T17:53:30;-4.30;99.90
5901;DHT22;2976;49.764;9.796;2022-12-18T17:55:57;-4.30;99.90
5901;DHT22;2976;49.764;9.796;2022-12-18T17:58:24;-4.30;99.90
5901;DHT22;2976;49.764;9.796;2022-12-18T18:00:50;-4.30;99.90
5901;DHT22;2976;49.764;9.796;2022-12-18T18:03:16;-4.30;99.90